sensor_id;sensor_type;location;lat;lon;timestamp;P1;durP1;ratioP1;P2;durP2;ratioP2
56911;SDS011;42800;53.928;27.662;2022-08-19T00:01:54;8.57;;;4.68;;
56911;SDS011;42800;53.928;27.662;2022-08-19T00:04:23;12.13;;;5.18;;
56911;SDS011;42800;53.928;27.662;2022-08-19T00:06:52;12.38;;;5.22;;
56911;SDS011;42800;53.928;27.662;2022-08-19T00:09:19;9.85;;;4.93;;
56911;SDS011;42800;53.928;27.662;2022-08-19T00:11:47;10.93;;;4.55;;
56911;SDS011;42800;53.928;27.662;2022-08-19T00:14:13;7.60;;;5.25;;
56911;SDS011;42800;53.928;27.662;2022-08-19T00:16:43;8.88;;;4.68;;
56911;SDS011;42800;53.928;27.662;2022-08-19T00:19:10;6.45;;;4.88;;
56911;SDS011;42800;53.928;27.662;2022-08-19T00:21:37;8.20;;;5.32;;
56911;SDS011;42800;53.928;27.662;2022-08-19T00:24:05;7.35;;;5.57;;
56911;SDS011;42800;53.928;27.662;2022-08-19T00:26:32;10.50;;;5.32;;
56911;SDS011;42800;53.928;27.662;2022-08-19T00:28:59;7.55;;;5.18;;
56911;SDS011;42800;53.928;27.662;2022-08-19T00:31:25;15.65;;;5.43;;
56911;SDS011;42800;53.928;27.662;2022-08-19T00:33:53;8.73;;;5.70;;
56911;SDS011;42800;53.928;27.662;2022-08-19T00:36:20;9.98;;;5.97;;
56911;SDS011;42800;53.928;27.662;2022-08-19T00:38:46;9.15;;;6.00;;
56911;SDS011;42800;53.928;27.662;2022-08-19T00:41:13;13.15;;;5.78;;
56911;SDS011;42800;53.928;27.662;2022-08-19T00:43:40;14.20;;;5.68;;
56911;SDS011;42800;53.928;27.662;2022-08-19T00:46:07;12.60;;;7.70;;
56911;SDS011;42800;53.928;27.662;2022-08-19T00:48:33;14.98;;;7.68;;
56911;SDS011;42800;53.928;27.662;2022-08-19T00:51:02;11.85;;;8.23;;
56911;SDS011;42800;53.928;27.662;2022-08-19T00:53:31;11.88;;;6.25;;
56911;SDS011;42800;53.928;27.662;2022-08-19T00:55:59;13.63;;;6.15;;
56911;SDS011;42800;53.928;27.662;2022-08-19T00:58:29;17.48;;;7.00;;
56911;SDS011;42800;53.928;27.662;2022-08-19T01:00:57;11.52;;;8.35;;
56911;SDS011;42800;53.928;27.662;2022-08-19T01:03:24;11.20;;;5.82;;
56911;SDS011;42800;53.928;27.662;2022-08-19T01:05:50;16.90;;;8.48;;
56911;SDS011;42800;53.928;27.662;2022-08-19T01:08:20;11.20;;;7.93;;
56911;SDS011;42800;53.928;27.662;2022-08-19T01:10:47;11.77;;;6.25;;
56911;SDS011;42800;53.928;27.662;2022-08-19T01:13:16;11.15;;;6.50;;
56911;SDS011;42800;53.928;27.662;2022-08-19T01:15:45;11.05;;;7.78;;
56911;SDS011;42800;53.928;27.662;2022-08-19T01:18:15;15.43;;;8.63;;
56911;SDS011;42800;53.928;27.662;2022-08-19T01:20:43;11.02;;;6.47;;
56911;SDS011;42800;53.928;27.662;2022-08-19T01:23:10;9.63;;;6.50;;
56911;SDS011;42800;53.928;27.662;2022-08-19T01:25:39;13.00;;;6.70;;
56911;SDS011;42800;53.928;27.662;2022-08-19T01:28:13;14.13;;;6.90;;
56911;SDS011;42800;53.928;27.662;2022-08-19T01:30:41;13.38;;;8.80;;
56911;SDS011;42800;53.928;27.662;2022-08-19T01:33:08;7.63;;;5.88;;
56911;SDS011;42800;53.928;27.662;2022-08-19T01:35:35;11.68;;;7.57;;
56911;SDS011;42800;53.928;27.662;2022-08-19T01:38:02;13.18;;;6.00;;
56911;SDS011;42800;53.928;27.662;2022-08-19T01:40:34;11.77;;;7.10;;
56911;SDS011;42800;53.928;27.662;2022-08-19T01:43:03;16.05;;;7.07;;
56911;SDS011;42800;53.928;27.662;2022-08-19T01:45:31;15.00;;;7.13;;
56911;SDS011;42800;53.928;27.662;2022-08-19T01:47:59;11.68;;;7.00;;
56911;SDS011;42800;53.928;27.662;2022-08-19T01:50:25;13.82;;;6.80;;
56911;SDS011;42800;53.928;27.662;2022-08-19T01:52:52;11.75;;;9.00;;
56911;SDS011;42800;53.928;27.662;2022-08-19T01:55:19;22.23;;;7.53;;
56911;SDS011;42800;53.928;27.662;2022-08-19T01:57:50;14.57;;;9.63;;
56911;SDS011;42800;53.928;27.662;2022-08-19T02:00:21;11.85;;;9.20;;
56911;SDS011;42800;53.928;27.662;2022-08-19T02:02:49;8.30;;;6.82;;
56911;SDS011;42800;53.928;27.662;2022-08-19T02:05:16;14.80;;;6.53;;
56911;SDS011;42800;53.928;27.662;2022-08-19T02:07:43;17.50;;;9.00;;
56911;SDS011;42800;53.928;27.662;2022-08-19T02:10:11;11.32;;;8.55;;
56911;SDS011;42800;53.928;27.662;2022-08-19T02:12:39;12.70;;;7.30;;
56911;SDS011;42800;53.928;27.662;2022-08-19T02:15:06;9.90;;;6.78;;
56911;SDS011;42800;53.928;27.662;2022-08-19T02:17:33;11.57;;;8.73;;
56911;SDS011;42800;53.928;27.662;2022-08-19T02:20:02;13.88;;;6.78;;
56911;SDS011;42800;53.928;27.662;2022-08-19T02:22:29;12.20;;;7.50;;
56911;SDS011;42800;53.928;27.662;2022-08-19T02:24:55;12.30;;;9.32;;
56911;SDS011;42800;53.928;27.662;2022-08-19T02:27:22;16.13;;;9.70;;
56911;SDS011;42800;53.928;27.662;2022-08-19T02:29:48;17.10;;;6.55;;
56911;SDS011;42800;53.928;27.662;2022-08-19T02:32:17;12.00;;;8.20;;
56911;SDS011;42800;53.928;27.662;2022-08-19T02:34:45;16.60;;;9.27;;
56911;SDS011;42800;53.928;27.662;2022-08-19T02:37:11;13.90;;;7.60;;
56911;SDS011;42800;53.928;27.662;2022-08-19T02:39:52;9.90;;;6.80;;
56911;SDS011;42800;53.928;27.662;2022-08-19T02:42:18;17.23;;;6.85;;
56911;SDS011;42800;53.928;27.662;2022-08-19T02:44:45;10.43;;;6.82;;
56911;SDS011;42800;53.928;27.662;2022-08-19T02:47:11;11.55;;;7.45;;
56911;SDS011;42800;53.928;27.662;2022-08-19T02:49:40;14.88;;;9.30;;
56911;SDS011;42800;53.928;27.662;2022-08-19T02:52:06;16.75;;;9.30;;
56911;SDS011;42800;53.928;27.662;2022-08-19T02:54:33;9.13;;;6.70;;
56911;SDS011;42800;53.928;27.662;2022-08-19T02:56:59;18.83;;;9.45;;
56911;SDS011;42800;53.928;27.662;2022-08-19T02:59:29;14.80;;;10.18;;
56911;SDS011;42800;53.928;27.662;2022-08-19T03:01:56;15.43;;;6.78;;
56911;SDS011;42800;53.928;27.662;2022-08-19T03:04:22;10.77;;;6.97;;
56911;SDS011;42800;53.928;27.662;2022-08-19T03:06:50;11.00;;;6.72;;
56911;SDS011;42800;53.928;27.662;2022-08-19T03:09:16;12.93;;;6.78;;
56911;SDS011;42800;53.928;27.662;2022-08-19T03:11:44;12.50;;;6.80;;
56911;SDS011;42800;53.928;27.662;2022-08-19T03:14:11;13.38;;;7.20;;
56911;SDS011;42800;53.928;27.662;2022-08-19T03:16:40;11.52;;;9.77;;
56911;SDS011;42800;53.928;27.662;2022-08-19T03:19:07;14.55;;;9.15;;
56911;SDS011;42800;53.928;27.662;2022-08-19T03:21:34;20.38;;;8.30;;
56911;SDS011;42800;53.928;27.662;2022-08-19T03:24:02;13.38;;;9.85;;
56911;SDS011;42800;53.928;27.662;2022-08-19T03:26:29;13.52;;;6.97;;
56911;SDS011;42800;53.928;27.662;2022-08-19T03:28:56;10.23;;;6.55;;
56911;SDS011;42800;53.928;27.662;2022-08-19T03:31:23;12.65;;;8.13;;
56911;SDS011;42800;53.928;27.662;2022-08-19T03:33:51;11.93;;;6.40;;
56911;SDS011;42800;53.928;27.662;2022-08-19T03:36:18;17.05;;;6.85;;
56911;SDS011;42800;53.928;27.662;2022-08-19T03:38:48;15.82;;;6.40;;
56911;SDS011;42800;53.928;27.662;2022-08-19T03:41:17;12.38;;;6.28;;
56911;SDS011;42800;53.928;27.662;2022-08-19T03:43:45;11.68;;;7.20;;
56911;SDS011;42800;53.928;27.662;2022-08-19T03:46:14;13.15;;;6.80;;
56911;SDS011;42800;53.928;27.662;2022-08-19T03:48:42;14.57;;;6.57;;
56911;SDS011;42800;53.928;27.662;2022-08-19T03:51:15;15.40;;;7.00;;
56911;SDS011;42800;53.928;27.662;2022-08-19T03:53:42;13.18;;;6.47;;
56911;SDS011;42800;53.928;27.662;2022-08-19T03:56:09;11.70;;;7.82;;
56911;SDS011;42800;53.928;27.662;2022-08-19T03:58:36;12.73;;;7.30;;
56911;SDS011;42800;53.928;27.662;2022-08-19T04:01:06;8.10;;;5.72;;
56911;SDS011;42800;53.928;27.662;2022-08-19T04:03:33;13.48;;;6.22;;
56911;SDS011;42800;53.928;27.662;2022-08-19T04:06:08;13.38;;;6.20;;
56911;SDS011;42800;53.928;27.662;2022-08-19T04:08:35;7.78;;;5.95;;
56911;SDS011;42800;53.928;27.662;2022-08-19T04:11:05;10.50;;;6.03;;
56911;SDS011;42800;53.928;27.662;2022-08-19T04:13:33;12.77;;;5.85;;
56911;SDS011;42800;53.928;27.662;2022-08-19T04:16:00;19.10;;;7.75;;
56911;SDS011;42800;53.928;27.662;2022-08-19T04:18:26;10.35;;;6.00;;
56911;SDS011;42800;53.928;27.662;2022-08-19T04:20:54;11.77;;;6.03;;
56911;SDS011;42800;53.928;27.662;2022-08-19T04:23:22;13.05;;;7.28;;
56911;SDS011;42800;53.928;27.662;2022-08-19T04:25:48;10.63;;;5.85;;
56911;SDS011;42800;53.928;27.662;2022-08-19T04:28:15;17.33;;;7.78;;
56911;SDS011;42800;53.928;27.662;2022-08-19T04:30:43;17.50;;;7.65;;
56911;SDS011;42800;53.928;27.662;2022-08-19T04:33:13;8.00;;;5.82;;
56911;SDS011;42800;53.928;27.662;2022-08-19T04:35:41;12.90;;;7.75;;
56911;SDS011;42800;53.928;27.662;2022-08-19T04:38:13;13.35;;;7.60;;
56911;SDS011;42800;53.928;27.662;2022-08-19T04:40:40;18.00;;;7.38;;
56911;SDS011;42800;53.928;27.662;2022-08-19T04:43:25;12.02;;;7.90;;
56911;SDS011;42800;53.928;27.662;2022-08-19T04:45:52;9.90;;;7.70;;
56911;SDS011;42800;53.928;27.662;2022-08-19T04:48:19;13.82;;;7.78;;
56911;SDS011;42800;53.928;27.662;2022-08-19T04:50:50;12.57;;;7.60;;
56911;SDS011;42800;53.928;27.662;2022-08-19T04:53:22;9.27;;;6.70;;
56911;SDS011;42800;53.928;27.662;2022-08-19T04:55:49;8.85;;;7.13;;
56911;SDS011;42800;53.928;27.662;2022-08-19T04:58:16;10.88;;;7.03;;
56911;SDS011;42800;53.928;27.662;2022-08-19T05:00:42;13.70;;;7.70;;
56911;SDS011;42800;53.928;27.662;2022-08-19T05:03:09;13.55;;;7.53;;
56911;SDS011;42800;53.928;27.662;2022-08-19T05:05:38;9.45;;;6.97;;
56911;SDS011;42800;53.928;27.662;2022-08-19T05:08:05;14.18;;;7.65;;
56911;SDS011;42800;53.928;27.662;2022-08-19T05:10:34;11.07;;;8.60;;
56911;SDS011;42800;53.928;27.662;2022-08-19T05:13:01;12.90;;;8.05;;
56911;SDS011;42800;53.928;27.662;2022-08-19T05:15:27;12.55;;;8.23;;
56911;SDS011;42800;53.928;27.662;2022-08-19T05:17:53;16.92;;;7.30;;
56911;SDS011;42800;53.928;27.662;2022-08-19T05:20:38;13.23;;;7.90;;
56911;SDS011;42800;53.928;27.662;2022-08-19T05:23:22;17.15;;;8.13;;
56911;SDS011;42800;53.928;27.662;2022-08-19T05:25:49;11.23;;;8.00;;
56911;SDS011;42800;53.928;27.662;2022-08-19T05:28:15;11.25;;;8.13;;
56911;SDS011;42800;53.928;27.662;2022-08-19T05:30:42;11.23;;;6.00;;
56911;SDS011;42800;53.928;27.662;2022-08-19T05:33:10;13.93;;;7.30;;
56911;SDS011;42800;53.928;27.662;2022-08-19T05:35:36;14.65;;;7.05;;
56911;SDS011;42800;53.928;27.662;2022-08-19T05:38:03;12.15;;;7.72;;
56911;SDS011;42800;53.928;27.662;2022-08-19T05:40:30;11.55;;;7.68;;
56911;SDS011;42800;53.928;27.662;2022-08-19T05:42:56;13.43;;;7.93;;
56911;SDS011;42800;53.928;27.662;2022-08-19T05:45:22;13.38;;;8.00;;
56911;SDS011;42800;53.928;27.662;2022-08-19T05:47:49;19.38;;;7.57;;
56911;SDS011;42800;53.928;27.662;2022-08-19T05:50:16;11.07;;;7.25;;
56911;SDS011;42800;53.928;27.662;2022-08-19T05:52:42;15.75;;;8.18;;
56911;SDS011;42800;53.928;27.662;2022-08-19T05:55:09;15.50;;;8.93;;
56911;SDS011;42800;53.928;27.662;2022-08-19T05:57:36;18.70;;;7.78;;
56911;SDS011;42800;53.928;27.662;2022-08-19T06:00:03;18.58;;;8.18;;
56911;SDS011;42800;53.928;27.662;2022-08-19T06:02:33;13.25;;;8.50;;
56911;SDS011;42800;53.928;27.662;2022-08-19T06:05:00;11.70;;;8.25;;
56911;SDS011;42800;53.928;27.662;2022-08-19T06:07:27;14.82;;;8.43;;
56911;SDS011;42800;53.928;27.662;2022-08-19T06:09:54;13.77;;;8.70;;
56911;SDS011;42800;53.928;27.662;2022-08-19T06:12:20;16.73;;;9.45;;
56911;SDS011;42800;53.928;27.662;2022-08-19T06:14:51;13.65;;;8.93;;
56911;SDS011;42800;53.928;27.662;2022-08-19T06:17:19;13.70;;;8.90;;
56911;SDS011;42800;53.928;27.662;2022-08-19T06:19:46;12.60;;;8.85;;
56911;SDS011;42800;53.928;27.662;2022-08-19T06:22:12;15.13;;;8.57;;
56911;SDS011;42800;53.928;27.662;2022-08-19T06:24:38;11.95;;;8.70;;
56911;SDS011;42800;53.928;27.662;2022-08-19T06:27:04;13.43;;;8.63;;
56911;SDS011;42800;53.928;27.662;2022-08-19T06:29:31;16.08;;;8.88;;
56911;SDS011;42800;53.928;27.662;2022-08-19T06:31:59;26.13;;;9.55;;
56911;SDS011;42800;53.928;27.662;2022-08-19T06:34:26;16.35;;;8.38;;
56911;SDS011;42800;53.928;27.662;2022-08-19T06:36:54;16.38;;;8.55;;
56911;SDS011;42800;53.928;27.662;2022-08-19T06:39:22;14.15;;;8.50;;
56911;SDS011;42800;53.928;27.662;2022-08-19T06:41:51;16.02;;;9.15;;
56911;SDS011;42800;53.928;27.662;2022-08-19T06:44:18;12.43;;;8.07;;
56911;SDS011;42800;53.928;27.662;2022-08-19T06:46:46;13.68;;;8.40;;
56911;SDS011;42800;53.928;27.662;2022-08-19T06:49:13;9.30;;;7.95;;
56911;SDS011;42800;53.928;27.662;2022-08-19T06:51:40;13.13;;;8.00;;
56911;SDS011;42800;53.928;27.662;2022-08-19T06:54:07;13.63;;;7.90;;
56911;SDS011;42800;53.928;27.662;2022-08-19T06:56:34;18.27;;;8.93;;
56911;SDS011;42800;53.928;27.662;2022-08-19T06:59:02;12.82;;;7.97;;
56911;SDS011;42800;53.928;27.662;2022-08-19T07:01:29;17.48;;;7.97;;
56911;SDS011;42800;53.928;27.662;2022-08-19T07:03:59;18.40;;;7.78;;
56911;SDS011;42800;53.928;27.662;2022-08-19T07:06:26;16.55;;;6.95;;
56911;SDS011;42800;53.928;27.662;2022-08-19T07:08:52;13.50;;;6.57;;
56911;SDS011;42800;53.928;27.662;2022-08-19T07:11:19;10.82;;;6.22;;
56911;SDS011;42800;53.928;27.662;2022-08-19T07:13:47;11.45;;;6.35;;
56911;SDS011;42800;53.928;27.662;2022-08-19T07:16:14;10.57;;;6.05;;
56911;SDS011;42800;53.928;27.662;2022-08-19T07:18:42;13.20;;;5.90;;
56911;SDS011;42800;53.928;27.662;2022-08-19T07:21:11;13.57;;;6.80;;
56911;SDS011;42800;53.928;27.662;2022-08-19T07:23:38;13.75;;;6.10;;
56911;SDS011;42800;53.928;27.662;2022-08-19T07:26:05;11.15;;;6.10;;
56911;SDS011;42800;53.928;27.662;2022-08-19T07:28:32;12.23;;;6.30;;
56911;SDS011;42800;53.928;27.662;2022-08-19T07:30:58;14.15;;;6.38;;
56911;SDS011;42800;53.928;27.662;2022-08-19T07:33:31;15.57;;;6.07;;
56911;SDS011;42800;53.928;27.662;2022-08-19T07:35:58;21.48;;;6.10;;
56911;SDS011;42800;53.928;27.662;2022-08-19T07:38:27;11.32;;;5.30;;
56911;SDS011;42800;53.928;27.662;2022-08-19T07:40:54;5.25;;;4.55;;
56911;SDS011;42800;53.928;27.662;2022-08-19T07:43:20;15.02;;;4.68;;
56911;SDS011;42800;53.928;27.662;2022-08-19T07:45:50;17.05;;;3.80;;
56911;SDS011;42800;53.928;27.662;2022-08-19T07:48:17;6.50;;;4.25;;
56911;SDS011;42800;53.928;27.662;2022-08-19T07:50:43;11.18;;;4.10;;
56911;SDS011;42800;53.928;27.662;2022-08-19T07:53:11;9.95;;;4.15;;
56911;SDS011;42800;53.928;27.662;2022-08-19T07:55:38;6.43;;;3.60;;
56911;SDS011;42800;53.928;27.662;2022-08-19T07:58:04;9.85;;;3.90;;
56911;SDS011;42800;53.928;27.662;2022-08-19T08:00:31;8.95;;;4.07;;
56911;SDS011;42800;53.928;27.662;2022-08-19T08:02:57;7.90;;;4.40;;
56911;SDS011;42800;53.928;27.662;2022-08-19T08:05:23;10.02;;;4.50;;
56911;SDS011;42800;53.928;27.662;2022-08-19T08:08:08;18.10;;;4.82;;
56911;SDS011;42800;53.928;27.662;2022-08-19T08:10:53;6.75;;;4.38;;
56911;SDS011;42800;53.928;27.662;2022-08-19T08:13:19;12.88;;;4.55;;
56911;SDS011;42800;53.928;27.662;2022-08-19T08:15:45;9.93;;;4.68;;
56911;SDS011;42800;53.928;27.662;2022-08-19T08:18:11;11.07;;;4.82;;
56911;SDS011;42800;53.928;27.662;2022-08-19T08:20:38;14.75;;;4.70;;
56911;SDS011;42800;53.928;27.662;2022-08-19T08:23:04;10.95;;;4.65;;
56911;SDS011;42800;53.928;27.662;2022-08-19T08:25:50;19.05;;;5.10;;
56911;SDS011;42800;53.928;27.662;2022-08-19T08:28:18;9.18;;;4.57;;
56911;SDS011;42800;53.928;27.662;2022-08-19T08:30:45;9.25;;;4.45;;
56911;SDS011;42800;53.928;27.662;2022-08-19T08:33:13;10.10;;;4.40;;
56911;SDS011;42800;53.928;27.662;2022-08-19T08:35:42;8.35;;;4.00;;
56911;SDS011;42800;53.928;27.662;2022-08-19T08:38:10;11.15;;;4.38;;
56911;SDS011;42800;53.928;27.662;2022-08-19T08:40:38;12.50;;;4.25;;
56911;SDS011;42800;53.928;27.662;2022-08-19T08:43:20;8.48;;;3.78;;
56911;SDS011;42800;53.928;27.662;2022-08-19T08:45:52;9.15;;;3.72;;
56911;SDS011;42800;53.928;27.662;2022-08-19T08:48:24;11.05;;;3.45;;
56911;SDS011;42800;53.928;27.662;2022-08-19T08:51:02;11.90;;;3.67;;
56911;SDS011;42800;53.928;27.662;2022-08-19T08:53:33;10.05;;;3.92;;
56911;SDS011;42800;53.928;27.662;2022-08-19T08:56:02;9.95;;;4.20;;
56911;SDS011;42800;53.928;27.662;2022-08-19T08:58:36;8.18;;;4.03;;
56911;SDS011;42800;53.928;27.662;2022-08-19T09:01:10;16.38;;;4.30;;
56911;SDS011;42800;53.928;27.662;2022-08-19T09:03:41;8.27;;;3.85;;
56911;SDS011;42800;53.928;27.662;2022-08-19T09:06:12;9.15;;;4.20;;
56911;SDS011;42800;53.928;27.662;2022-08-19T09:08:44;8.02;;;3.83;;
56911;SDS011;42800;53.928;27.662;2022-08-19T09:11:15;10.98;;;3.70;;
56911;SDS011;42800;53.928;27.662;2022-08-19T09:13:51;10.85;;;4.28;;
56911;SDS011;42800;53.928;27.662;2022-08-19T09:16:27;15.35;;;4.00;;
56911;SDS011;42800;53.928;27.662;2022-08-19T09:18:56;7.35;;;3.78;;
56911;SDS011;42800;53.928;27.662;2022-08-19T09:21:26;8.85;;;4.22;;
56911;SDS011;42800;53.928;27.662;2022-08-19T09:23:52;14.13;;;4.35;;
56911;SDS011;42800;53.928;27.662;2022-08-19T09:26:20;10.18;;;4.10;;
56911;SDS011;42800;53.928;27.662;2022-08-19T09:28:50;10.40;;;4.43;;
56911;SDS011;42800;53.928;27.662;2022-08-19T09:31:18;6.57;;;3.78;;
56911;SDS011;42800;53.928;27.662;2022-08-19T09:33:47;9.68;;;3.65;;
56911;SDS011;42800;53.928;27.662;2022-08-19T09:36:15;11.05;;;4.45;;
56911;SDS011;42800;53.928;27.662;2022-08-19T09:38:43;9.73;;;4.68;;
56911;SDS011;42800;53.928;27.662;2022-08-19T09:41:11;7.85;;;3.72;;
56911;SDS011;42800;53.928;27.662;2022-08-19T09:43:39;6.85;;;3.72;;
56911;SDS011;42800;53.928;27.662;2022-08-19T09:46:07;8.73;;;4.18;;
56911;SDS011;42800;53.928;27.662;2022-08-19T09:48:34;10.70;;;3.90;;
56911;SDS011;42800;53.928;27.662;2022-08-19T09:51:02;11.32;;;4.43;;
56911;SDS011;42800;53.928;27.662;2022-08-19T09:53:29;8.10;;;4.22;;
56911;SDS011;42800;53.928;27.662;2022-08-19T09:55:56;8.23;;;4.22;;
56911;SDS011;42800;53.928;27.662;2022-08-19T09:58:22;13.10;;;4.82;;
56911;SDS011;42800;53.928;27.662;2022-08-19T10:00:52;13.32;;;4.78;;
56911;SDS011;42800;53.928;27.662;2022-08-19T10:03:20;8.75;;;4.03;;
56911;SDS011;42800;53.928;27.662;2022-08-19T10:05:46;9.70;;;4.32;;
56911;SDS011;42800;53.928;27.662;2022-08-19T10:08:16;8.65;;;4.57;;
56911;SDS011;42800;53.928;27.662;2022-08-19T10:10:44;13.65;;;4.93;;
56911;SDS011;42800;53.928;27.662;2022-08-19T10:13:11;11.65;;;4.90;;
56911;SDS011;42800;53.928;27.662;2022-08-19T10:15:38;9.52;;;4.60;;
56911;SDS011;42800;53.928;27.662;2022-08-19T10:18:05;10.43;;;4.70;;
56911;SDS011;42800;53.928;27.662;2022-08-19T10:20:33;10.13;;;4.88;;
56911;SDS011;42800;53.928;27.662;2022-08-19T10:23:00;8.82;;;4.00;;
56911;SDS011;42800;53.928;27.662;2022-08-19T10:25:26;8.30;;;3.95;;
56911;SDS011;42800;53.928;27.662;2022-08-19T10:27:53;11.43;;;4.68;;
56911;SDS011;42800;53.928;27.662;2022-08-19T10:30:19;10.43;;;4.63;;
56911;SDS011;42800;53.928;27.662;2022-08-19T10:32:46;10.82;;;4.85;;
56911;SDS011;42800;53.928;27.662;2022-08-19T10:35:13;9.38;;;4.25;;
56911;SDS011;42800;53.928;27.662;2022-08-19T10:37:40;17.75;;;4.72;;
56911;SDS011;42800;53.928;27.662;2022-08-19T10:40:07;12.60;;;4.93;;
56911;SDS011;42800;53.928;27.662;2022-08-19T10:42:36;8.98;;;4.53;;
56911;SDS011;42800;53.928;27.662;2022-08-19T10:45:04;10.98;;;4.55;;
56911;SDS011;42800;53.928;27.662;2022-08-19T10:47:31;14.43;;;4.65;;
56911;SDS011;42800;53.928;27.662;2022-08-19T10:49:58;10.60;;;4.65;;
56911;SDS011;42800;53.928;27.662;2022-08-19T10:52:44;9.75;;;4.25;;
56911;SDS011;42800;53.928;27.662;2022-08-19T10:55:11;11.02;;;4.63;;
56911;SDS011;42800;53.928;27.662;2022-08-19T10:57:56;9.00;;;4.88;;
56911;SDS011;42800;53.928;27.662;2022-08-19T11:00:23;10.75;;;4.97;;
56911;SDS011;42800;53.928;27.662;2022-08-19T11:02:50;9.95;;;4.55;;
56911;SDS011;42800;53.928;27.662;2022-08-19T11:05:17;12.57;;;4.40;;
56911;SDS011;42800;53.928;27.662;2022-08-19T11:07:45;19.00;;;4.93;;
56911;SDS011;42800;53.928;27.662;2022-08-19T11:10:12;10.57;;;4.35;;
56911;SDS011;42800;53.928;27.662;2022-08-19T11:12:39;10.25;;;5.47;;
56911;SDS011;42800;53.928;27.662;2022-08-19T11:15:07;15.52;;;5.10;;
56911;SDS011;42800;53.928;27.662;2022-08-19T11:17:36;11.77;;;4.40;;
56911;SDS011;42800;53.928;27.662;2022-08-19T11:20:06;14.50;;;4.75;;
56911;SDS011;42800;53.928;27.662;2022-08-19T11:22:33;14.98;;;5.05;;
56911;SDS011;42800;53.928;27.662;2022-08-19T11:25:00;11.80;;;4.65;;
56911;SDS011;42800;53.928;27.662;2022-08-19T11:27:27;16.95;;;5.07;;
56911;SDS011;42800;53.928;27.662;2022-08-19T11:29:55;11.88;;;4.55;;
56911;SDS011;42800;53.928;27.662;2022-08-19T11:32:22;8.35;;;4.72;;
56911;SDS011;42800;53.928;27.662;2022-08-19T11:34:48;18.02;;;4.90;;
56911;SDS011;42800;53.928;27.662;2022-08-19T11:37:14;18.15;;;4.63;;
56911;SDS011;42800;53.928;27.662;2022-08-19T11:39:40;20.80;;;5.75;;
56911;SDS011;42800;53.928;27.662;2022-08-19T11:42:07;11.05;;;4.60;;
56911;SDS011;42800;53.928;27.662;2022-08-19T11:44:48;16.27;;;4.80;;
56911;SDS011;42800;53.928;27.662;2022-08-19T11:47:15;8.60;;;4.05;;
56911;SDS011;42800;53.928;27.662;2022-08-19T11:49:41;11.40;;;4.60;;
56911;SDS011;42800;53.928;27.662;2022-08-19T11:52:07;11.35;;;4.45;;
56911;SDS011;42800;53.928;27.662;2022-08-19T11:54:34;10.25;;;4.55;;
56911;SDS011;42800;53.928;27.662;2022-08-19T11:57:01;8.93;;;5.03;;
56911;SDS011;42800;53.928;27.662;2022-08-19T11:59:29;19.48;;;5.10;;
56911;SDS011;42800;53.928;27.662;2022-08-19T12:01:56;9.52;;;4.50;;
56911;SDS011;42800;53.928;27.662;2022-08-19T12:04:22;13.05;;;4.50;;
56911;SDS011;42800;53.928;27.662;2022-08-19T12:06:49;11.15;;;5.10;;
56911;SDS011;42800;53.928;27.662;2022-08-19T12:09:15;11.20;;;4.80;;
56911;SDS011;42800;53.928;27.662;2022-08-19T12:11:42;6.60;;;5.13;;
56911;SDS011;42800;53.928;27.662;2022-08-19T12:14:10;11.55;;;5.00;;
56911;SDS011;42800;53.928;27.662;2022-08-19T12:16:40;12.85;;;5.28;;
56911;SDS011;42800;53.928;27.662;2022-08-19T12:19:06;9.90;;;4.82;;
56911;SDS011;42800;53.928;27.662;2022-08-19T12:21:33;9.60;;;4.80;;
56911;SDS011;42800;53.928;27.662;2022-08-19T12:24:01;9.60;;;4.50;;
56911;SDS011;42800;53.928;27.662;2022-08-19T12:26:29;13.32;;;4.38;;
56911;SDS011;42800;53.928;27.662;2022-08-19T12:28:56;10.98;;;4.68;;
56911;SDS011;42800;53.928;27.662;2022-08-19T12:31:24;14.32;;;5.20;;
56911;SDS011;42800;53.928;27.662;2022-08-19T12:33:51;15.10;;;4.97;;
56911;SDS011;42800;53.928;27.662;2022-08-19T12:36:18;10.20;;;5.00;;
56911;SDS011;42800;53.928;27.662;2022-08-19T12:38:44;10.45;;;5.03;;
56911;SDS011;42800;53.928;27.662;2022-08-19T12:41:13;10.80;;;5.00;;
56911;SDS011;42800;53.928;27.662;2022-08-19T12:43:42;13.63;;;5.28;;
56911;SDS011;42800;53.928;27.662;2022-08-19T12:46:09;10.35;;;4.85;;
56911;SDS011;42800;53.928;27.662;2022-08-19T12:48:36;10.88;;;5.82;;
56911;SDS011;42800;53.928;27.662;2022-08-19T12:51:09;12.00;;;5.68;;
56911;SDS011;42800;53.928;27.662;2022-08-19T12:53:37;9.07;;;4.82;;
56911;SDS011;42800;53.928;27.662;2022-08-19T12:56:04;11.05;;;5.68;;
56911;SDS011;42800;53.928;27.662;2022-08-19T12:58:30;10.25;;;5.40;;
56911;SDS011;42800;53.928;27.662;2022-08-19T13:00:59;12.07;;;5.75;;
56911;SDS011;42800;53.928;27.662;2022-08-19T13:03:25;10.80;;;5.28;;
56911;SDS011;42800;53.928;27.662;2022-08-19T13:05:54;10.43;;;5.70;;
56911;SDS011;42800;53.928;27.662;2022-08-19T13:08:21;17.33;;;5.93;;
56911;SDS011;42800;53.928;27.662;2022-08-19T13:10:48;11.20;;;5.35;;
56911;SDS011;42800;53.928;27.662;2022-08-19T13:13:14;9.35;;;5.45;;
56911;SDS011;42800;53.928;27.662;2022-08-19T13:15:41;10.75;;;5.53;;
56911;SDS011;42800;53.928;27.662;2022-08-19T13:18:11;13.50;;;5.53;;
56911;SDS011;42800;53.928;27.662;2022-08-19T13:20:38;18.10;;;6.03;;
56911;SDS011;42800;53.928;27.662;2022-08-19T13:23:05;15.57;;;5.80;;
56911;SDS011;42800;53.928;27.662;2022-08-19T13:25:32;11.65;;;5.28;;
56911;SDS011;42800;53.928;27.662;2022-08-19T13:27:59;11.45;;;6.10;;
56911;SDS011;42800;53.928;27.662;2022-08-19T13:30:25;7.68;;;5.20;;
56911;SDS011;42800;53.928;27.662;2022-08-19T13:33:11;10.98;;;5.45;;
56911;SDS011;42800;53.928;27.662;2022-08-19T13:35:39;12.30;;;5.75;;
56911;SDS011;42800;53.928;27.662;2022-08-19T13:38:07;9.63;;;5.50;;
56911;SDS011;42800;53.928;27.662;2022-08-19T13:40:34;11.05;;;5.45;;
56911;SDS011;42800;53.928;27.662;2022-08-19T13:43:02;10.65;;;5.50;;
56911;SDS011;42800;53.928;27.662;2022-08-19T13:45:30;9.38;;;5.60;;
56911;SDS011;42800;53.928;27.662;2022-08-19T13:47:59;9.27;;;5.57;;
56911;SDS011;42800;53.928;27.662;2022-08-19T13:50:31;13.68;;;5.57;;
56911;SDS011;42800;53.928;27.662;2022-08-19T13:52:58;14.02;;;5.50;;
56911;SDS011;42800;53.928;27.662;2022-08-19T13:55:26;9.05;;;5.53;;
56911;SDS011;42800;53.928;27.662;2022-08-19T13:57:54;11.10;;;5.28;;
56911;SDS011;42800;53.928;27.662;2022-08-19T14:00:22;10.43;;;5.30;;
56911;SDS011;42800;53.928;27.662;2022-08-19T14:02:51;6.40;;;4.90;;
56911;SDS011;42800;53.928;27.662;2022-08-19T14:05:19;12.55;;;5.22;;
56911;SDS011;42800;53.928;27.662;2022-08-19T14:07:46;7.72;;;5.57;;
56911;SDS011;42800;53.928;27.662;2022-08-19T14:10:13;19.38;;;5.65;;
56911;SDS011;42800;53.928;27.662;2022-08-19T14:12:41;8.48;;;4.55;;
56911;SDS011;42800;53.928;27.662;2022-08-19T14:15:08;13.70;;;5.30;;
56911;SDS011;42800;53.928;27.662;2022-08-19T14:17:37;14.30;;;5.15;;
56911;SDS011;42800;53.928;27.662;2022-08-19T14:20:04;10.52;;;5.45;;
56911;SDS011;42800;53.928;27.662;2022-08-19T14:22:33;9.88;;;5.15;;
56911;SDS011;42800;53.928;27.662;2022-08-19T14:24:59;7.22;;;5.03;;
56911;SDS011;42800;53.928;27.662;2022-08-19T14:27:26;11.98;;;5.22;;
56911;SDS011;42800;53.928;27.662;2022-08-19T14:29:52;13.70;;;5.40;;